createdAt,value
2022-11-17T00:02:24.187Z,9.18
2022-11-17T00:04:51.049Z,9.75
2022-11-17T00:07:17.971Z,8.98
2022-11-17T00:09:44.578Z,8.63
2022-11-17T00:12:32.892Z,8.85
2022-11-17T00:15:00.321Z,10.18
2022-11-17T00:17:27.383Z,10.38
2022-11-17T00:20:13.028Z,11.02
2022-11-17T00:22:39.910Z,10.05
2022-11-17T00:25:06.813Z,8.98
2022-11-17T00:27:33.594Z,7.95
2022-11-17T00:30:00.407Z,8.68
2022-11-17T00:32:45.671Z,9.43
2022-11-17T00:35:12.370Z,9.43
2022-11-17T00:38:00.866Z,8.80
2022-11-17T00:40:27.967Z,10.70
2022-11-17T00:42:54.671Z,10.18
2022-11-17T00:45:21.498Z,11.80
2022-11-17T00:47:48.387Z,10.88
2022-11-17T00:50:15.322Z,9.30
2022-11-17T00:52:42.341Z,9.73
2022-11-17T00:55:09.371Z,9.73
2022-11-17T00:57:36.066Z,9.88
2022-11-17T01:00:03.020Z,9.30
2022-11-17T01:02:29.837Z,9.20
2022-11-17T01:04:56.530Z,9.00
2022-11-17T01:07:23.639Z,8.40
2022-11-17T01:09:50.562Z,8.82
2022-11-17T01:12:17.189Z,7.85
2022-11-17T01:14:43.911Z,8.13
2022-11-17T01:17:10.742Z,8.32
2022-11-17T01:19:37.367Z,7.35
2022-11-17T01:22:04.177Z,8.30
2022-11-17T01:24:30.858Z,7.63
2022-11-17T01:26:57.560Z,7.78
2022-11-17T01:29:24.587Z,7.90
2022-11-17T01:31:52.606Z,6.40
2022-11-17T01:34:19.390Z,6.80
2022-11-17T01:37:05.141Z,8.05
2022-11-17T01:39:32.222Z,7.07
2022-11-17T01:42:04.094Z,7.72
2022-11-17T01:44:53.937Z,8.93
2022-11-17T01:47:48.803Z,7.40
2022-11-17T01:50:19.046Z,7.60
2022-11-17T01:52:48.988Z,7.75
2022-11-17T01:55:17.961Z,7.53
2022-11-17T01:57:57.669Z,7.45
2022-11-17T02:00:25.734Z,7.60
2022-11-17T02:02:53.572Z,8.38
2022-11-17T02:05:31.856Z,8.18
2022-11-17T02:08:02.030Z,7.38
2022-11-17T02:10:31.021Z,7.10
2022-11-17T02:12:59.141Z,7.13
2022-11-17T02:15:27.167Z,7.65
2022-11-17T02:17:54.312Z,8.35
2022-11-17T02:20:40.047Z,8.02
2022-11-17T02:23:48.758Z,8.35
2022-11-17T02:26:44.204Z,7.70
2022-11-17T02:29:37.167Z,7.28
2022-11-17T02:32:13.514Z,6.75
2022-11-17T02:35:12.646Z,8.32
2022-11-17T02:37:59.717Z,7.50
2022-11-17T02:40:32.884Z,6.78
2022-11-17T02:43:20.991Z,7.25
2022-11-17T02:45:57.939Z,7.53
2022-11-17T02:48:30.237Z,6.80
2022-11-17T02:50:58.922Z,7.70
2022-11-17T02:53:27.758Z,7.72
2022-11-17T02:55:55.721Z,7.97
2022-11-17T02:58:22.567Z,7.28
2022-11-17T03:00:59.121Z,7.50
2022-11-17T03:04:03.598Z,7.25
2022-11-17T03:06:39.395Z,7.63
2022-11-17T03:09:21.016Z,7.10
2022-11-17T03:12:16.736Z,7.88
2022-11-17T03:15:05.187Z,7.10
2022-11-17T03:17:53.349Z,7.32
2022-11-17T03:20:24.804Z,7.82
2022-11-17T03:23:03.314Z,7.03
2022-11-17T03:25:35.088Z,7.45
2022-11-17T03:28:08.074Z,6.93
2022-11-17T03:30:37.824Z,6.75
2022-11-17T03:33:15.494Z,7.60
2022-11-17T03:35:50.802Z,6.80
2022-11-17T03:38:22.163Z,8.27
2022-11-17T03:40:52.991Z,7.20
2022-11-17T03:43:21.665Z,7.57
2022-11-17T03:45:52.882Z,7.47
2022-11-17T03:48:29.410Z,6.32
2022-11-17T03:50:59.994Z,7.05
2022-11-17T03:53:26.970Z,7.55
2022-11-17T03:56:02.984Z,7.18
2022-11-17T03:58:34.123Z,6.53
2022-11-17T04:01:03.545Z,7.70
2022-11-17T04:03:32.797Z,7.72
2022-11-17T04:06:00.565Z,7.68
2022-11-17T04:08:30.947Z,6.88
2022-11-17T04:11:16.750Z,6.20
2022-11-17T04:14:02.317Z,6.50
2022-11-17T04:16:29.167Z,6.78
2022-11-17T04:18:58.984Z,6.82
2022-11-17T04:21:26.510Z,7.00
2022-11-17T04:23:53.354Z,6.43
2022-11-17T04:26:39.300Z,6.50
2022-11-17T04:29:06.179Z,6.68
2022-11-17T04:31:32.980Z,7.50
2022-11-17T04:34:01.857Z,6.45
2022-11-17T04:36:31.052Z,6.13
2022-11-17T04:39:00.061Z,7.10
2022-11-17T04:41:48.042Z,6.32
2022-11-17T04:44:17.094Z,6.85
2022-11-17T04:46:45.953Z,6.47
2022-11-17T04:49:14.650Z,6.70
2022-11-17T04:51:41.875Z,6.90
2022-11-17T04:54:10.471Z,7.13
2022-11-17T04:56:38.084Z,7.82
2022-11-17T04:59:05.413Z,7.63
2022-11-17T05:01:32.681Z,7.93
2022-11-17T05:04:10.631Z,8.82
2022-11-17T05:06:40.377Z,8.32
2022-11-17T05:09:12.605Z,11.63
2022-11-17T05:11:58.067Z,11.05
2022-11-17T05:14:26.099Z,10.23
2022-11-17T05:17:09.433Z,9.45
2022-11-17T05:19:40.797Z,9.65
2022-11-17T05:22:27.738Z,8.68
2022-11-17T05:25:10.151Z,9.80
2022-11-17T05:27:37.130Z,9.27
2022-11-17T05:30:06.640Z,10.00
2022-11-17T05:32:33.435Z,9.65
2022-11-17T05:35:00.792Z,8.82
2022-11-17T05:37:27.574Z,9.85
2022-11-17T05:39:54.595Z,8.63
2022-11-17T05:42:21.362Z,9.23
2022-11-17T05:44:49.119Z,8.68
2022-11-17T05:47:15.995Z,8.35
2022-11-17T05:49:42.667Z,7.43
2022-11-17T05:52:11.724Z,6.70
2022-11-17T05:54:42.245Z,7.63
2022-11-17T05:57:30.492Z,7.53
2022-11-17T06:00:05.669Z,7.22
2022-11-17T06:02:39.794Z,7.28
2022-11-17T06:05:07.934Z,6.78
2022-11-17T06:07:39.739Z,9.35
2022-11-17T06:10:06.972Z,6.88
2022-11-17T06:12:33.773Z,7.40
2022-11-17T06:15:00.555Z,7.03
2022-11-17T06:17:39.801Z,6.20
2022-11-17T06:20:15.735Z,6.50
2022-11-17T06:22:48.014Z,8.27
2022-11-17T06:25:15.740Z,8.00
2022-11-17T06:27:42.727Z,7.05
2022-11-17T06:30:10.358Z,7.35
2022-11-17T06:32:39.605Z,6.43
2022-11-17T06:35:08.815Z,7.63
2022-11-17T06:37:35.803Z,7.47
2022-11-17T06:40:02.569Z,9.15
2022-11-17T06:42:51.007Z,8.40
2022-11-17T06:45:21.029Z,8.38
2022-11-17T06:47:47.949Z,7.85
2022-11-17T06:50:14.699Z,8.93
2022-11-17T06:52:41.582Z,8.38
2022-11-17T06:55:08.802Z,9.27
2022-11-17T06:57:36.008Z,11.68
2022-11-17T07:00:04.151Z,10.63
2022-11-17T07:02:32.138Z,10.68
2022-11-17T07:04:59.220Z,10.07
2022-11-17T07:07:26.198Z,9.57
2022-11-17T07:09:53.040Z,10.65
2022-11-17T07:12:19.999Z,10.65
2022-11-17T07:14:48.947Z,12.50
2022-11-17T07:17:15.772Z,11.57
2022-11-17T07:19:42.698Z,11.88
2022-11-17T07:22:09.635Z,10.70
2022-11-17T07:24:36.428Z,11.48
2022-11-17T07:27:05.031Z,12.93
2022-11-17T07:29:32.457Z,12.95
2022-11-17T07:31:59.283Z,16.30
2022-11-17T07:34:26.886Z,12.52
2022-11-17T07:36:53.907Z,10.75
2022-11-17T07:39:21.955Z,10.48
2022-11-17T07:41:49.325Z,11.27
2022-11-17T07:44:16.299Z,9.20
2022-11-17T07:46:43.359Z,10.15
2022-11-17T07:49:10.530Z,11.18
2022-11-17T07:51:37.423Z,10.40
2022-11-17T07:54:04.364Z,10.63
2022-11-17T07:56:31.304Z,12.52
2022-11-17T07:58:58.048Z,11.93
2022-11-17T08:01:27.656Z,9.65
2022-11-17T08:03:54.847Z,9.45
2022-11-17T08:06:24.057Z,8.32
2022-11-17T08:08:51.875Z,5.95
2022-11-17T08:11:19.689Z,5.10
2022-11-17T08:13:50.198Z,4.65
2022-11-17T08:16:17.667Z,3.90
2022-11-17T08:18:51.831Z,2.90
2022-11-17T08:21:19.677Z,3.08
2022-11-17T08:23:51.959Z,3.28
2022-11-17T08:26:20.843Z,3.22
2022-11-17T08:28:55.209Z,3.60
2022-11-17T08:31:25.141Z,3.28
2022-11-17T08:33:51.894Z,3.05
2022-11-17T08:36:18.954Z,3.88
2022-11-17T08:38:45.986Z,3.45
2022-11-17T08:41:12.810Z,3.67
2022-11-17T08:43:45.020Z,4.30
2022-11-17T08:46:13.697Z,5.53
2022-11-17T08:48:41.090Z,6.82
2022-11-17T08:51:09.158Z,8.45
2022-11-17T08:53:36.672Z,8.07
2022-11-17T08:56:08.685Z,8.75
2022-11-17T08:58:45.223Z,6.55
2022-11-17T09:01:15.990Z,7.25
2022-11-17T09:03:45.205Z,7.22
2022-11-17T09:06:13.338Z,11.57
2022-11-17T09:08:47.852Z,7.50
2022-11-17T09:11:15.450Z,6.38
2022-11-17T09:13:42.468Z,6.65
2022-11-17T09:16:11.543Z,5.40
2022-11-17T09:18:39.961Z,5.35
2022-11-17T09:21:13.341Z,5.05
2022-11-17T09:23:43.393Z,4.68
2022-11-17T09:26:14.996Z,5.10
2022-11-17T09:28:45.130Z,4.38
2022-11-17T09:31:20.329Z,4.57
2022-11-17T09:33:49.049Z,4.57
2022-11-17T09:36:19.626Z,6.13
2022-11-17T09:38:50.902Z,4.85
2022-11-17T09:41:26.513Z,6.00
2022-11-17T09:44:17.650Z,4.72
2022-11-17T09:46:50.950Z,3.88
2022-11-17T09:49:34.480Z,4.15
2022-11-17T09:52:10.966Z,4.47
2022-11-17T09:54:59.234Z,6.60
2022-11-17T09:57:36.907Z,4.80
2022-11-17T10:00:18.892Z,3.55
2022-11-17T10:02:46.790Z,3.28
2022-11-17T10:05:35.243Z,3.80
2022-11-17T10:08:13.112Z,2.78
2022-11-17T10:10:45.945Z,3.15
2022-11-17T10:13:24.243Z,4.43
2022-11-17T10:16:13.932Z,3.50
2022-11-17T10:18:41.533Z,5.93
2022-11-17T10:21:09.530Z,6.43
2022-11-17T10:23:47.124Z,11.13
2022-11-17T10:26:16.256Z,5.95
2022-11-17T10:28:44.669Z,4.28
2022-11-17T10:31:15.227Z,4.50
2022-11-17T10:33:49.758Z,5.78
2022-11-17T10:36:29.927Z,5.00
2022-11-17T10:39:01.223Z,7.15
2022-11-17T10:41:41.680Z,9.75
2022-11-17T10:44:32.144Z,11.40
2022-11-17T10:47:08.459Z,11.38
2022-11-17T10:49:38.738Z,11.73
2022-11-17T10:52:11.853Z,9.70
2022-11-17T10:54:39.190Z,10.23
2022-11-17T10:57:20.719Z,11.10
2022-11-17T10:59:57.867Z,10.32
2022-11-17T11:02:40.454Z,9.32
2022-11-17T11:05:16.526Z,12.18
2022-11-17T11:07:43.917Z,9.27
2022-11-17T11:10:26.595Z,8.65
2022-11-17T11:13:20.928Z,10.50
2022-11-17T11:15:48.493Z,9.43
2022-11-17T11:18:18.287Z,10.13
2022-11-17T11:21:08.140Z,10.85
2022-11-17T11:23:50.236Z,10.23
2022-11-17T11:26:40.072Z,10.52
2022-11-17T11:29:31.154Z,9.50
2022-11-17T11:32:24.380Z,10.30
2022-11-17T11:35:07.153Z,9.40
2022-11-17T11:37:43.889Z,10.32
2022-11-17T11:40:31.924Z,10.90
2022-11-17T11:43:14.309Z,11.65
2022-11-17T11:45:54.834Z,10.77
2022-11-17T11:48:29.972Z,12.02
2022-11-17T11:51:05.372Z,12.27
2022-11-17T11:53:45.528Z,9.63
2022-11-17T11:56:17.618Z,10.10
2022-11-17T11:58:54.131Z,9.38
2022-11-17T12:01:23.302Z,11.02
2022-11-17T12:04:02.516Z,11.48
2022-11-17T12:07:13.678Z,10.52
2022-11-17T12:09:49.472Z,11.43
2022-11-17T12:12:20.862Z,13.75
2022-11-17T12:15:19.981Z,11.77
2022-11-17T12:17:56.920Z,12.55
2022-11-17T12:20:39.437Z,11.68
2022-11-17T12:23:33.925Z,12.95
2022-11-17T12:26:01.753Z,12.05
2022-11-17T12:28:38.149Z,12.23
2022-11-17T12:31:10.414Z,13.13
2022-11-17T12:34:00.712Z,11.85
2022-11-17T12:36:31.885Z,10.68
2022-11-17T12:39:01.225Z,10.35
2022-11-17T12:41:51.674Z,10.60
2022-11-17T12:44:32.121Z,8.02
2022-11-17T12:47:25.519Z,7.95
2022-11-17T12:50:19.066Z,7.53
2022-11-17T12:53:09.853Z,7.15
2022-11-17T12:55:56.403Z,5.95
2022-11-17T12:58:26.034Z,5.82
2022-11-17T13:01:11.394Z,6.80
2022-11-17T13:04:06.796Z,6.43
2022-11-17T13:06:35.835Z,5.82
2022-11-17T13:09:06.800Z,6.20
2022-11-17T13:11:35.362Z,6.68
2022-11-17T13:14:16.111Z,6.95
2022-11-17T13:16:49.590Z,6.78
2022-11-17T13:19:38.726Z,6.70
2022-11-17T13:22:15.262Z,6.28
2022-11-17T13:24:45.447Z,6.35
2022-11-17T13:27:27.161Z,6.63
2022-11-17T13:30:16.264Z,7.05
2022-11-17T13:32:43.368Z,7.00
2022-11-17T13:35:23.145Z,6.70
2022-11-17T13:38:11.846Z,9.25
2022-11-17T13:40:41.311Z,9.98
2022-11-17T13:43:13.923Z,8.05
2022-11-17T13:45:43.291Z,8.43
2022-11-17T13:48:33.382Z,8.95
2022-11-17T13:51:24.874Z,8.00
2022-11-17T13:54:00.808Z,14.15
2022-11-17T13:56:53.931Z,9.63
2022-11-17T13:59:27.601Z,8.23
2022-11-17T14:02:17.299Z,9.10
2022-11-17T14:05:15.255Z,9.48
2022-11-17T14:07:44.565Z,10.65
2022-11-17T14:10:31.668Z,10.40
2022-11-17T14:13:01.346Z,10.10
2022-11-17T14:15:31.630Z,7.50
2022-11-17T14:18:00.666Z,9.25
2022-11-17T14:20:34.195Z,10.32
2022-11-17T14:23:01.542Z,14.23
2022-11-17T14:25:29.667Z,12.98
2022-11-17T14:27:56.683Z,10.88
2022-11-17T14:30:23.695Z,10.43
2022-11-17T14:32:50.423Z,11.68
2022-11-17T14:37:46.650Z,14.93
2022-11-17T14:40:18.135Z,16.73
2022-11-17T14:42:47.548Z,12.35
2022-11-17T14:45:15.834Z,13.75
2022-11-17T14:47:43.044Z,15.55
2022-11-17T14:50:23.400Z,18.67
2022-11-17T14:52:50.336Z,17.88
2022-11-17T14:55:17.241Z,18.83
2022-11-17T14:57:44.376Z,21.48
2022-11-17T15:00:17.302Z,22.75
2022-11-17T15:02:47.399Z,24.52
2022-11-17T15:05:17.605Z,29.13
2022-11-17T15:07:44.371Z,30.42
2022-11-17T15:10:11.382Z,30.42
2022-11-17T15:12:38.518Z,31.83
2022-11-17T15:15:07.083Z,31.85
2022-11-17T15:17:37.440Z,25.80
2022-11-17T15:20:05.790Z,19.65
2022-11-17T15:22:32.705Z,16.05
2022-11-17T15:24:59.578Z,17.02
2022-11-17T15:27:26.664Z,17.77
2022-11-17T15:29:54.059Z,20.13
2022-11-17T15:32:20.894Z,20.27
2022-11-17T15:34:48.291Z,15.13
2022-11-17T15:37:14.972Z,14.18
2022-11-17T15:39:41.900Z,15.73
2022-11-17T15:42:09.100Z,15.10
2022-11-17T15:44:37.216Z,10.82
2022-11-17T15:47:04.127Z,13.88
2022-11-17T15:49:30.940Z,11.82
2022-11-17T15:51:57.666Z,12.65
2022-11-17T15:54:26.641Z,9.68
2022-11-17T15:56:53.590Z,9.10
2022-11-17T15:59:20.762Z,10.15
2022-11-17T16:04:43.821Z,9.25
2022-11-17T16:07:13.244Z,9.82
2022-11-17T16:09:47.566Z,12.27
2022-11-17T16:12:31.752Z,13.20
2022-11-17T16:14:58.599Z,12.52
2022-11-17T16:17:25.257Z,11.77
2022-11-17T16:19:52.450Z,11.88
2022-11-17T16:22:19.328Z,10.23
2022-11-17T16:24:46.047Z,9.02
2022-11-17T16:27:13.739Z,9.02
2022-11-17T16:29:41.020Z,7.78
2022-11-17T16:32:08.457Z,8.18
2022-11-17T16:34:36.766Z,8.27
2022-11-17T16:37:03.691Z,7.40
2022-11-17T16:39:30.532Z,7.10
2022-11-17T16:41:59.602Z,6.93
2022-11-17T16:44:26.612Z,7.22
2022-11-17T16:46:53.395Z,8.70
2022-11-17T16:49:20.755Z,11.13
2022-11-17T16:51:49.570Z,8.93
2022-11-17T16:54:17.882Z,8.88
2022-11-17T16:59:37.422Z,6.95
2022-11-17T17:02:04.486Z,11.32
2022-11-17T17:04:31.413Z,8.25
2022-11-17T17:06:58.469Z,5.85
2022-11-17T17:09:28.024Z,7.15
2022-11-17T17:11:55.020Z,7.72
2022-11-17T17:14:21.772Z,7.68
2022-11-17T17:16:49.025Z,8.50
2022-11-17T17:19:16.646Z,7.32
2022-11-17T17:21:44.189Z,7.63
2022-11-17T17:24:11.343Z,8.48
2022-11-17T17:26:39.984Z,6.97
2022-11-17T17:29:07.795Z,6.15
2022-11-17T17:31:40.041Z,6.72
2022-11-17T17:34:13.480Z,6.53
2022-11-17T17:36:40.489Z,6.30
2022-11-17T17:39:07.995Z,5.97
2022-11-17T17:41:39.324Z,6.30
2022-11-17T17:44:07.700Z,5.90
2022-11-17T17:47:01.699Z,5.57
2022-11-17T17:49:30.692Z,5.35
2022-11-17T17:52:15.025Z,6.47
2022-11-17T17:54:42.395Z,6.22
2022-11-17T17:57:10.574Z,5.60
2022-11-17T17:59:37.601Z,5.57
2022-11-17T18:02:05.606Z,5.75
2022-11-17T18:04:32.397Z,4.47
2022-11-17T18:07:00.331Z,4.50
2022-11-17T18:09:27.884Z,4.03
2022-11-17T18:11:54.874Z,4.55
2022-11-17T18:14:24.822Z,3.88
2022-11-17T18:16:51.921Z,4.60
2022-11-17T18:19:19.411Z,4.32
2022-11-17T18:21:46.497Z,4.30
2022-11-17T18:24:13.840Z,4.55
2022-11-17T18:26:41.625Z,4.47
2022-11-17T18:29:13.705Z,4.35
2022-11-17T18:31:40.929Z,3.08
2022-11-17T18:34:14.433Z,3.67
2022-11-17T18:36:41.717Z,3.88
2022-11-17T18:39:09.237Z,3.15
2022-11-17T18:41:36.516Z,4.05
2022-11-17T18:44:04.171Z,5.13
2022-11-17T18:46:32.721Z,3.85
2022-11-17T18:49:00.339Z,4.95
2022-11-17T18:51:30.641Z,4.70
2022-11-17T18:53:59.403Z,4.40
2022-11-17T18:56:28.772Z,4.90
2022-11-17T18:58:55.730Z,5.10
2022-11-17T19:01:24.963Z,4.72
2022-11-17T19:03:53.624Z,5.57
2022-11-17T19:06:22.157Z,8.50
2022-11-17T19:08:50.127Z,5.93
2022-11-17T19:11:19.214Z,5.28
2022-11-17T19:13:46.467Z,5.22
2022-11-17T19:16:25.405Z,4.38
2022-11-17T19:18:54.963Z,4.22
2022-11-17T19:21:30.700Z,4.80
2022-11-17T19:24:00.148Z,4.93
2022-11-17T19:26:29.563Z,5.13
2022-11-17T19:28:58.566Z,5.30
2022-11-17T19:31:26.205Z,5.93
2022-11-17T19:33:54.341Z,8.27
2022-11-17T19:36:24.138Z,8.20
2022-11-17T19:38:52.743Z,12.35
2022-11-17T19:41:25.833Z,12.23
2022-11-17T19:43:57.588Z,9.23
2022-11-17T19:46:26.291Z,7.18
2022-11-17T19:48:53.666Z,6.10
2022-11-17T19:51:29.429Z,5.30
2022-11-17T19:53:59.066Z,6.20
2022-11-17T19:56:26.453Z,9.60
2022-11-17T19:58:54.135Z,8.48
2022-11-17T20:01:26.775Z,7.18
2022-11-17T20:03:54.364Z,5.10
2022-11-17T20:06:27.301Z,5.60
2022-11-17T20:08:55.448Z,4.43
2022-11-17T20:11:26.461Z,5.00
2022-11-17T20:13:57.164Z,4.68
2022-11-17T20:16:26.287Z,5.38
2022-11-17T20:18:58.462Z,5.68
2022-11-17T20:21:26.759Z,6.40
2022-11-17T20:23:54.910Z,5.80
2022-11-17T20:26:29.148Z,5.60
2022-11-17T20:28:57.874Z,6.13
2022-11-17T20:31:27.163Z,6.97
2022-11-17T20:34:01.043Z,7.65
2022-11-17T20:36:29.473Z,8.23
2022-11-17T20:39:01.932Z,8.82
2022-11-17T20:41:29.291Z,8.93
2022-11-17T20:43:57.547Z,10.98
2022-11-17T20:46:26.870Z,15.50
2022-11-17T20:48:55.414Z,18.58
2022-11-17T20:54:31.344Z,15.52
2022-11-17T20:57:22.425Z,15.00
2022-11-17T20:59:53.376Z,17.00
2022-11-17T21:02:20.898Z,12.27
2022-11-17T21:04:51.614Z,15.73
2022-11-17T21:07:21.831Z,9.80
2022-11-17T21:09:52.475Z,8.73
2022-11-17T21:12:19.880Z,5.00
2022-11-17T21:14:49.165Z,4.03
2022-11-17T21:17:34.482Z,4.63
2022-11-17T21:20:02.203Z,4.13
2022-11-17T21:22:29.108Z,3.75
2022-11-17T21:24:55.818Z,3.38
2022-11-17T21:27:24.032Z,3.95
2022-11-17T21:29:50.784Z,3.58
2022-11-17T21:32:17.693Z,3.47
2022-11-17T21:34:49.674Z,3.72
2022-11-17T21:37:16.771Z,3.45
2022-11-17T21:39:44.031Z,3.58
2022-11-17T21:42:11.616Z,3.25
2022-11-17T21:44:39.552Z,3.47
2022-11-17T21:47:08.085Z,3.00
2022-11-17T21:49:35.323Z,2.88
2022-11-17T21:52:02.295Z,2.72
2022-11-17T21:54:29.127Z,5.55
2022-11-17T21:56:56.467Z,10.18
2022-11-17T21:59:23.428Z,11.73
2022-11-17T22:01:50.519Z,13.30
2022-11-17T22:04:19.515Z,7.63
2022-11-17T22:06:46.769Z,11.20
2022-11-17T22:09:13.743Z,11.32
2022-11-17T22:11:41.216Z,6.13
2022-11-17T22:14:11.189Z,6.30
2022-11-17T22:16:59.501Z,5.28
2022-11-17T22:19:28.812Z,6.35
2022-11-17T22:21:55.771Z,13.52
2022-11-17T22:24:23.214Z,9.20
2022-11-17T22:26:51.754Z,11.88
2022-11-17T22:29:21.134Z,14.35
2022-11-17T22:31:49.604Z,8.32
2022-11-17T22:34:17.853Z,6.88
2022-11-17T22:36:45.103Z,13.35
2022-11-17T22:39:12.681Z,14.30
2022-11-17T22:41:42.998Z,14.07
2022-11-17T22:44:16.552Z,11.93
2022-11-17T22:46:44.163Z,9.85
2022-11-17T22:49:12.280Z,12.32
2022-11-17T22:51:57.929Z,11.63
2022-11-17T22:54:27.176Z,9.85
2022-11-17T22:56:57.977Z,10.52
2022-11-17T22:59:26.934Z,13.38
2022-11-17T23:01:58.551Z,12.18
2022-11-17T23:04:25.958Z,11.60
2022-11-17T23:06:53.721Z,10.43
2022-11-17T23:09:23.176Z,11.38
2022-11-17T23:11:50.469Z,11.32
2022-11-17T23:14:17.421Z,10.13
2022-11-17T23:16:44.542Z,10.07
2022-11-17T23:19:13.373Z,9.27
2022-11-17T23:21:40.794Z,10.10
2022-11-17T23:24:13.172Z,9.15
2022-11-17T23:26:41.208Z,8.25
2022-11-17T23:29:11.699Z,9.02
2022-11-17T23:31:39.278Z,8.43
2022-11-17T23:34:10.120Z,8.52
2022-11-17T23:36:40.618Z,8.93
2022-11-17T23:39:08.212Z,7.97
2022-11-17T23:41:45.795Z,8.40
2022-11-17T23:46:57.046Z,4.50
2022-11-17T23:49:37.519Z,6.63
2022-11-17T23:52:15.616Z,8.63
